Time;durP1;ratioP1;P1;durP2;ratioP2;P2;SDS_P1;SDS_P2;PMS_P1;PMS_P2;Temp;Humidity;BMP_temperature;BMP_pressure;BME280_temperature;BME280_humidity;BME280_pressure;Samples;Min_cycle;Max_cycle;Signal;HPM_P1;HPM_P2
2022/11/09 00:00:04;;;;;;;18.40;13.15;;;24.30;99.90;;;;;;5096252;28;20392;-43
2022/11/09 00:02:30;;;;;;;;;;;24.30;99.90;;;;;;5096684;28;20081;-44
2022/11/09 00:04:56;;;;;;;17.63;11.95;;;24.30;99.90;;;;;;5096084;28;19904;-44
2022/11/09 00:07:21;;;;;;;19.63;12.48;;;24.30;99.90;;;;;;5096273;28;20060;-44
2022/11/09 00:09:47;;;;;;;15.57;11.40;;;24.30;99.90;;;;;;5095916;28;20122;-43
2022/11/09 00:12:13;;;;;;;15.70;11.70;;;24.30;99.90;;;;;;5095924;28;20056;-43
2022/11/09 00:14:39;;;;;;;18.92;12.55;;;24.30;99.90;;;;;;5096082;28;20031;-43
2022/11/09 00:17:04;;;;;;;18.92;11.70;;;24.30;99.90;;;;;;5095967;28;20034;-44
2022/11/09 00:19:30;;;;;;;18.50;12.43;;;24.30;99.90;;;;;;5077706;28;20529;-44
2022/11/09 00:21:56;;;;;;;15.35;11.23;;;24.30;99.90;;;;;;5096059;28;20070;-44
2022/11/09 00:24:22;;;;;;;15.38;11.57;;;24.30;99.90;;;;;;5095793;28;20431;-44
2022/11/09 00:26:48;;;;;;;14.68;11.52;;;24.30;99.90;;;;;;5077931;28;20350;-44
2022/11/09 00:29:13;;;;;;;15.88;10.80;;;24.30;99.90;;;;;;5095644;28;20028;-43
2022/11/09 00:31:39;;;;;;;14.85;11.23;;;24.30;99.90;;;;;;5095482;28;20104;-43
2022/11/09 00:34:05;;;;;;;15.57;10.90;;;24.30;99.90;;;;;;5095568;28;20020;-43
2022/11/09 00:36:31;;;;;;;13.38;10.57;;;24.30;99.90;;;;;;5095442;28;20028;-43
2022/11/09 00:38:59;;;;;;;17.92;11.57;;;24.30;99.90;;;;;;5094301;28;20024;-44
2022/11/09 00:41:25;;;;;;;14.30;10.38;;;24.30;99.90;;;;;;5077360;28;20430;-44
2022/11/09 00:43:51;;;;;;;13.65;10.20;;;24.30;99.90;;;;;;5095775;28;20103;-44
2022/11/09 00:46:18;;;;;;;13.98;9.90;;;24.30;99.90;;;;;;5077330;28;20185;-44
2022/11/09 00:48:44;;;;;;;13.88;10.23;;;24.30;99.90;;;;;;5095219;28;20056;-43
2022/11/09 00:51:10;;;;;;;13.30;9.98;;;24.30;99.90;;;;;;5095345;28;20074;-43
2022/11/09 00:53:36;;;;;;;14.82;10.82;;;24.30;99.90;;;;;;5095098;28;20024;-43
2022/11/09 00:56:03;;;;;;;15.63;10.52;;;24.20;99.90;;;;;;5095058;28;20021;-43
2022/11/09 00:58:31;;;;;;;13.40;9.90;;;24.30;99.90;;;;;;5095153;28;20024;-43
2022/11/09 01:00:59;;;;;;;15.98;10.02;;;24.20;99.90;;;;;;5092499;22;20491;-52
2022/11/09 01:03:25;;;;;;;12.95;9.65;;;24.20;99.90;;;;;;5056956;28;20107;-52
2022/11/09 01:05:51;;;;;;;13.75;9.52;;;24.20;99.90;;;;;;5075055;28;20035;-52
2022/11/09 01:08:18;;;;;;;12.50;8.93;;;24.30;99.90;;;;;;5074735;28;20029;-52
2022/11/09 01:10:45;;;;;;;13.27;9.35;;;24.20;99.90;;;;;;5074726;28;20063;-52
2022/11/09 01:13:14;;;;;;;;;;;24.30;99.90;;;;;;5075112;28;20024;-52
2022/11/09 01:15:49;;;;;;;12.32;8.63;;;24.20;99.90;;;;;;5074856;28;20305;-52
2022/11/09 01:18:16;;;;;;;11.45;8.68;;;24.20;99.90;;;;;;5074660;28;20047;-52
2022/11/09 01:20:44;;;;;;;12.52;9.02;;;24.20;99.90;;;;;;5074723;28;20024;-52
2022/11/09 01:23:11;;;;;;;12.80;8.27;;;24.20;99.90;;;;;;5074390;28;20036;-52
2022/11/09 01:25:37;;;;;;;11.30;8.15;;;24.20;99.90;;;;;;5074345;28;20468;-52
2022/11/09 01:28:05;;;;;;;11.25;8.00;;;24.20;99.90;;;;;;5074522;28;20439;-52
2022/11/09 01:30:34;;;;;;;13.13;9.13;;;24.20;99.90;;;;;;5074496;28;20024;-52
2022/11/09 01:33:02;;;;;;;10.95;7.88;;;24.20;99.90;;;;;;5074362;28;20020;-52
2022/11/09 01:35:28;;;;;;;11.88;7.95;;;24.10;99.90;;;;;;5074286;28;20444;-52
2022/11/09 01:37:54;;;;;;;10.10;7.85;;;24.20;99.90;;;;;;5074235;28;20056;-51
2022/11/09 01:40:20;;;;;;;11.80;8.25;;;24.20;99.90;;;;;;5074151;28;20047;-51
2022/11/09 01:42:45;;;;;;;10.85;8.35;;;24.10;99.90;;;;;;5056055;28;20024;-51
2022/11/09 01:45:17;;;;;;;10.65;6.93;;;24.20;99.90;;;;;;5073967;28;20048;-51
2022/11/09 01:47:48;;;;;;;11.38;7.38;;;24.20;99.90;;;;;;5074137;28;20103;-52
2022/11/09 01:50:21;;;;;;;10.65;7.38;;;24.20;99.90;;;;;;5073569;28;20064;-52
2022/11/09 01:52:48;;;;;;;9.52;7.03;;;24.20;99.90;;;;;;5074081;28;20468;-52
2022/11/09 01:55:20;;;;;;;9.02;6.93;;;24.10;99.90;;;;;;5074067;28;20036;-52
2022/11/09 01:58:13;;;;;;;11.40;7.93;;;24.10;99.90;;;;;;5074158;28;20451;-53
2022/11/09 02:00:42;;;;;;;10.77;7.93;;;24.10;99.90;;;;;;5066581;22;20123;-43
2022/11/09 02:03:14;;;;;;;10.90;7.97;;;24.10;99.90;;;;;;5035740;28;20554;-44
2022/11/09 02:05:40;;;;;;;10.15;7.35;;;24.10;99.90;;;;;;5053812;28;20120;-44
2022/11/09 02:08:09;;;;;;;10.10;7.05;;;24.10;99.90;;;;;;5053875;28;20057;-44
2022/11/09 02:10:46;;;;;;;9.77;6.93;;;24.10;99.90;;;;;;5053509;28;20083;-44
2022/11/09 02:13:14;;;;;;;9.50;6.70;;;24.10;99.90;;;;;;5053645;28;20017;-44
2022/11/09 02:15:40;;;;;;;9.70;7.18;;;24.10;99.90;;;;;;5053594;28;20029;-44
2022/11/09 02:18:07;;;;;;;10.18;6.18;;;24.10;99.90;;;;;;5053978;28;20028;-43
2022/11/09 02:20:54;;;;;;;9.38;6.70;;;24.10;99.90;;;;;;5053430;28;20104;-44
2022/11/09 02:23:20;;;;;;;;;;;24.10;99.90;;;;;;5053759;28;20031;-44
2022/11/09 02:25:54;;;;;;;9.55;6.60;;;24.10;99.90;;;;;;5053275;28;20275;-45
2022/11/09 02:28:20;;;;;;;9.77;5.95;;;24.10;99.90;;;;;;5053497;28;20057;-44
2022/11/09 02:30:50;;;;;;;11.65;6.70;;;24.10;99.90;;;;;;5053222;28;20039;-44
2022/11/09 02:33:16;;;;;;;8.18;5.90;;;24.10;99.90;;;;;;5053395;28;20021;-44
2022/11/09 02:35:42;;;;;;;9.77;6.95;;;24.00;99.90;;;;;;5053311;28;20105;-44
2022/11/09 02:38:12;;;;;;;10.18;6.47;;;24.00;99.90;;;;;;5053578;28;20444;-42
2022/11/09 02:40:42;;;;;;;8.63;5.63;;;24.10;99.90;;;;;;5053365;28;20024;-43
2022/11/09 02:43:10;;;;;;;7.68;6.00;;;24.10;99.90;;;;;;5053170;28;20461;-43
2022/11/09 02:45:35;;;;;;;8.65;6.38;;;24.10;99.90;;;;;;5053262;28;20050;-43
2022/11/09 02:48:02;;;;;;;8.50;6.45;;;24.00;99.90;;;;;;5053080;28;20025;-42
2022/11/09 02:50:28;;;;;;;9.93;6.57;;;24.10;99.90;;;;;;5053086;28;20037;-42
2022/11/09 02:52:53;;;;;;;9.50;7.10;;;24.00;99.90;;;;;;5053222;28;20032;-43
2022/11/09 02:55:19;;;;;;;9.07;6.40;;;24.00;99.90;;;;;;5052972;28;20021;-43
2022/11/09 02:57:45;;;;;;;8.85;6.68;;;24.00;99.90;;;;;;5053145;28;20029;-42
2022/11/09 03:00:11;;;;;;;9.43;6.40;;;24.00;99.90;;;;;;5053450;28;20049;-42
2022/11/09 03:02:37;;;;;;;8.95;6.22;;;24.00;99.90;;;;;;5056674;28;20029;-43
2022/11/09 03:05:04;;;;;;;9.45;5.97;;;24.00;99.90;;;;;;5057187;28;20029;-42
2022/11/09 03:07:31;;;;;;;8.75;6.25;;;24.00;99.90;;;;;;5056982;28;20017;-41
2022/11/09 03:09:56;;;;;;;10.48;6.47;;;24.00;99.90;;;;;;5039386;28;20407;-42
2022/11/09 03:12:28;;;;;;;11.18;7.45;;;24.00;99.90;;;;;;5056933;28;20078;-42
2022/11/09 03:15:02;;;;;;;9.77;6.10;;;24.00;99.90;;;;;;5056908;28;20103;-42
2022/11/09 03:17:28;;;;;;;10.13;6.07;;;24.10;99.90;;;;;;5057100;28;20468;-43
2022/11/09 03:19:54;;;;;;;11.48;6.78;;;24.00;99.90;;;;;;5055367;28;20021;-42
2022/11/09 03:22:20;;;;;;;13.30;8.35;;;24.00;99.90;;;;;;5056568;28;20055;-42
2022/11/09 03:24:46;;;;;;;9.55;5.53;;;24.00;99.90;;;;;;5055366;28;20052;-42
2022/11/09 03:27:13;;;;;;;12.27;6.90;;;24.00;99.90;;;;;;5054479;28;20096;-42
2022/11/09 03:29:38;;;;;;;9.65;6.55;;;24.00;99.90;;;;;;5054477;28;20025;-45
2022/11/09 03:32:04;;;;;;;9.60;6.53;;;24.00;99.90;;;;;;5054440;28;20548;-42
2022/11/09 03:34:30;;;;;;;7.60;5.63;;;24.00;99.90;;;;;;5054401;28;20029;-42
2022/11/09 03:36:56;;;;;;;8.80;6.05;;;24.00;99.90;;;;;;5054233;28;20021;-43
2022/11/09 03:39:22;;;;;;;11.02;6.30;;;24.00;99.90;;;;;;5054389;28;20029;-43
2022/11/09 03:41:48;;;;;;;9.73;6.13;;;24.00;99.90;;;;;;5054545;28;20041;-43
2022/11/09 03:44:14;;;;;;;9.30;6.28;;;24.00;99.90;;;;;;5054482;28;20025;-43
2022/11/09 03:46:39;;;;;;;7.45;5.53;;;24.00;99.90;;;;;;5054542;28;20025;-43
2022/11/09 03:49:05;;;;;;;8.45;5.97;;;24.00;99.90;;;;;;5036835;28;20309;-44
2022/11/09 03:51:31;;;;;;;10.93;6.25;;;24.00;99.90;;;;;;5054211;28;20033;-43
2022/11/09 03:53:57;;;;;;;8.00;5.53;;;24.00;99.90;;;;;;5055656;28;20029;-43
2022/11/09 03:56:22;;;;;;;10.13;6.10;;;24.00;99.90;;;;;;5056518;28;20021;-43
2022/11/09 03:58:48;;;;;;;11.52;6.05;;;24.00;99.90;;;;;;5038294;28;20039;-43
2022/11/09 04:01:14;;;;;;;8.05;5.72;;;24.00;99.90;;;;;;5056374;28;20060;-43
2022/11/09 04:03:40;;;;;;;9.60;6.10;;;24.00;99.90;;;;;;5056125;28;20021;-43
2022/11/09 04:06:05;;;;;;;8.20;5.63;;;24.00;99.90;;;;;;5055956;28;20021;-43
2022/11/09 04:08:31;;;;;;;7.68;5.55;;;24.00;99.90;;;;;;5055852;28;20056;-43
2022/11/09 04:10:58;;;;;;;9.48;6.70;;;24.00;99.90;;;;;;5055957;28;20037;-43
2022/11/09 04:13:23;;;;;;;9.45;6.85;;;24.00;99.90;;;;;;5055817;28;20094;-43
2022/11/09 04:15:49;;;;;;;8.10;5.45;;;24.00;99.90;;;;;;5055877;28;20040;-43
2022/11/09 04:18:16;;;;;;;9.75;7.05;;;24.00;99.90;;;;;;5055777;28;20021;-43
2022/11/09 04:20:42;;;;;;;9.48;5.80;;;24.00;99.90;;;;;;5055834;28;20366;-43
2022/11/09 04:23:11;;;;;;;10.40;5.35;;;24.00;99.90;;;;;;5055840;28;20104;-42
2022/11/09 04:25:38;;;;;;;9.00;6.00;;;24.00;99.90;;;;;;5037792;28;20500;-43
2022/11/09 04:28:05;;;;;;;;;;;24.00;99.90;;;;;;5056387;28;20413;-43
2022/11/09 04:30:32;;;;;;;10.77;6.25;;;24.00;99.90;;;;;;5055552;28;19931;-43
2022/11/09 04:32:59;;;;;;;8.48;5.43;;;24.00;99.90;;;;;;5055562;28;20024;-43
2022/11/09 04:35:27;;;;;;;7.15;5.30;;;23.90;99.90;;;;;;5055577;28;20024;-43
2022/11/09 04:37:57;;;;;;;9.95;5.72;;;23.90;99.90;;;;;;5055498;28;20068;-43
2022/11/09 04:40:24;;;;;;;8.90;5.65;;;23.90;99.90;;;;;;5055349;28;20104;-44
2022/11/09 04:42:50;;;;;;;8.50;6.00;;;23.90;99.90;;;;;;5055418;28;20028;-43
2022/11/09 04:45:16;;;;;;;8.02;5.05;;;23.90;99.90;;;;;;5037558;28;20479;-43
2022/11/09 04:47:41;;;;;;;7.20;5.13;;;24.00;99.90;;;;;;5037155;28;20036;-43
2022/11/09 04:50:08;;;;;;;9.32;5.35;;;23.90;99.90;;;;;;5055110;28;20033;-43
2022/11/09 04:52:33;;;;;;;8.07;5.90;;;23.90;99.90;;;;;;5055184;28;20095;-43
2022/11/09 04:54:59;;;;;;;10.10;6.15;;;23.90;99.90;;;;;;5055237;28;20465;-43
2022/11/09 04:57:25;;;;;;;8.45;5.63;;;23.90;99.90;;;;;;5055188;28;20040;-43
2022/11/09 04:59:51;;;;;;;7.68;5.40;;;23.90;99.90;;;;;;5055501;28;20077;-43
2022/11/09 05:02:16;;;;;;;6.93;5.13;;;23.90;99.90;;;;;;5055403;28;20029;-44
2022/11/09 05:04:42;;;;;;;7.97;5.72;;;23.90;99.90;;;;;;5054953;28;20025;-43
2022/11/09 05:07:08;;;;;;;9.05;5.28;;;23.90;99.90;;;;;;5054899;28;20411;-43
2022/11/09 05:09:33;;;;;;;6.65;5.00;;;23.90;99.90;;;;;;5054900;28;20048;-43
2022/11/09 05:11:59;;;;;;;7.60;5.38;;;23.90;99.90;;;;;;5054757;28;20079;-43
2022/11/09 05:14:25;;;;;;;10.23;5.95;;;23.90;99.90;;;;;;5054753;28;20021;-43
2022/11/09 05:16:51;;;;;;;6.97;4.97;;;23.90;99.90;;;;;;5054622;28;20017;-43
2022/11/09 05:19:16;;;;;;;7.22;4.78;;;23.90;99.90;;;;;;5054976;28;20163;-42
2022/11/09 05:21:42;;;;;;;6.68;5.30;;;23.90;99.90;;;;;;5055080;28;20029;-42
2022/11/09 05:24:08;;;;;;;8.40;5.57;;;23.90;99.90;;;;;;5054382;28;20028;-43
2022/11/09 05:26:39;;;;;;;8.98;5.60;;;23.90;99.90;;;;;;5054531;28;20033;-43
2022/11/09 05:29:10;;;;;;;7.10;4.78;;;23.90;99.90;;;;;;5054345;28;20056;-43
2022/11/09 05:31:36;;;;;;;6.70;5.10;;;23.90;99.90;;;;;;5054157;28;20032;-44
2022/11/09 05:34:03;;;;;;;7.93;5.75;;;23.90;99.90;;;;;;5054672;28;20108;-42
2022/11/09 05:36:30;;;;;;;8.48;5.20;;;23.90;99.90;;;;;;5054448;28;20025;-42
2022/11/09 05:38:56;;;;;;;6.15;5.07;;;23.90;99.90;;;;;;5036348;28;20037;-43
2022/11/09 05:41:23;;;;;;;6.53;4.53;;;23.90;99.90;;;;;;5054172;28;20496;-43
2022/11/09 05:43:49;;;;;;;7.15;4.72;;;23.90;99.90;;;;;;5054176;28;20097;-43
2022/11/09 05:46:16;;;;;;;7.40;5.13;;;23.90;99.90;;;;;;5054087;28;20025;-43
2022/11/09 05:48:42;;;;;;;7.20;5.30;;;23.90;99.90;;;;;;5054062;28;20029;-42
2022/11/09 05:51:10;;;;;;;8.02;5.40;;;23.90;99.90;;;;;;5054428;28;20060;-43
2022/11/09 05:53:36;;;;;;;7.10;5.05;;;23.90;99.90;;;;;;5054235;28;20021;-43
2022/11/09 05:56:05;;;;;;;6.20;4.07;;;23.90;99.90;;;;;;5053951;28;20025;-43
2022/11/09 05:58:35;;;;;;;6.57;4.95;;;23.90;99.90;;;;;;5053967;28;20024;-43
2022/11/09 06:01:03;;;;;;;5.53;3.97;;;23.90;99.90;;;;;;5035674;28;20049;-42
2022/11/09 06:03:28;;;;;;;6.82;4.63;;;23.90;99.90;;;;;;5053954;28;20017;-43
2022/11/09 06:05:58;;;;;;;5.43;4.38;;;23.90;99.90;;;;;;5053923;28;20530;-43
2022/11/09 06:08:24;;;;;;;6.70;4.20;;;23.90;99.90;;;;;;5054183;28;20025;-43
2022/11/09 06:10:50;;;;;;;5.95;3.88;;;23.80;99.90;;;;;;5053684;28;20391;-43
2022/11/09 06:13:15;;;;;;;5.88;3.78;;;23.80;99.90;;;;;;5053665;28;20083;-43
2022/11/09 06:15:41;;;;;;;5.57;4.07;;;23.90;99.90;;;;;;5053602;28;20057;-43
2022/11/09 06:18:07;;;;;;;6.38;4.53;;;23.80;99.90;;;;;;5035640;28;20032;-43
2022/11/09 06:20:33;;;;;;;6.03;4.53;;;23.90;99.90;;;;;;5053582;28;20029;-43
2022/11/09 06:23:01;;;;;;;7.18;3.80;;;23.80;99.90;;;;;;5053437;28;20021;-44
2022/11/09 06:25:27;;;;;;;4.82;3.72;;;23.90;99.90;;;;;;5053252;28;20025;-43
2022/11/09 06:27:54;;;;;;;7.10;3.97;;;23.80;99.90;;;;;;5053462;28;20021;-42
2022/11/09 06:30:20;;;;;;;6.68;4.00;;;23.80;99.90;;;;;;5053431;28;20033;-43
2022/11/09 06:32:46;;;;;;;6.63;3.97;;;23.80;99.90;;;;;;5053137;28;20029;-44
2022/11/09 06:35:12;;;;;;;4.03;3.47;;;23.80;99.90;;;;;;5052819;28;20075;-42
2022/11/09 06:37:38;;;;;;;7.35;4.18;;;23.80;99.90;;;;;;5053149;28;20432;-43
2022/11/09 06:40:04;;;;;;;6.35;4.13;;;23.80;99.90;;;;;;5053168;28;20389;-43
2022/11/09 06:42:30;;;;;;;5.53;4.03;;;23.80;99.90;;;;;;5053505;28;20017;-43
2022/11/09 06:44:55;;;;;;;4.95;3.90;;;23.80;99.90;;;;;;5053164;28;20024;-43
2022/11/09 06:47:21;;;;;;;6.72;4.35;;;23.80;99.90;;;;;;5053286;28;20029;-43
2022/11/09 06:49:47;;;;;;;5.50;3.58;;;23.80;99.90;;;;;;5052840;28;20116;-43
2022/11/09 06:52:13;;;;;;;7.03;3.65;;;23.80;99.90;;;;;;5053246;28;20473;-43
2022/11/09 06:54:38;;;;;;;5.78;3.72;;;23.80;99.90;;;;;;5052931;28;20048;-43
2022/11/09 06:57:04;;;;;;;5.65;3.92;;;23.80;99.90;;;;;;5053090;28;20025;-43
2022/11/09 06:59:30;;;;;;;5.90;3.72;;;23.80;99.90;;;;;;5052951;28;20489;-43
2022/11/09 07:01:56;;;;;;;4.95;3.28;;;23.80;99.90;;;;;;5052878;28;20017;-43
2022/11/09 07:04:21;;;;;;;6.45;3.60;;;23.80;99.90;;;;;;5052955;28;20033;-43
2022/11/09 07:06:47;;;;;;;4.03;3.25;;;23.80;99.90;;;;;;5052868;28;20067;-44
2022/11/09 07:09:13;;;;;;;4.45;3.22;;;23.80;99.90;;;;;;5052877;28;20032;-43
2022/11/09 07:11:39;;;;;;;6.28;3.25;;;23.80;99.90;;;;;;5052819;28;20033;-43
2022/11/09 07:14:05;;;;;;;5.80;4.30;;;23.80;99.90;;;;;;5035037;28;20099;-43
2022/11/09 07:16:31;;;;;;;5.78;3.60;;;23.80;99.90;;;;;;5052751;28;20516;-43
2022/11/09 07:18:57;;;;;;;5.47;3.60;;;23.80;99.90;;;;;;5052826;28;20029;-44
2022/11/09 07:21:23;;;;;;;4.28;3.15;;;23.90;99.90;;;;;;5052900;28;20025;-44
2022/11/09 07:23:49;;;;;;;6.40;3.05;;;23.90;99.90;;;;;;5052732;28;20468;-44
2022/11/09 07:26:15;;;;;;;5.15;3.50;;;23.90;99.90;;;;;;5052579;28;20405;-43
2022/11/09 07:28:41;;;;;;;17.83;5.35;;;23.90;99.90;;;;;;5052489;28;20354;-43
2022/11/09 07:31:08;;;;;;;6.05;3.53;;;23.90;99.90;;;;;;5052567;28;20036;-43
2022/11/09 07:33:34;;;;;;;5.57;3.70;;;23.90;99.90;;;;;;5035053;28;20499;-43
2022/11/09 07:36:02;;;;;;;4.93;3.13;;;24.00;99.90;;;;;;5052718;28;20393;-43
2022/11/09 07:38:28;;;;;;;5.93;3.00;;;24.00;99.90;;;;;;5052563;28;20021;-44
2022/11/09 07:40:58;;;;;;;5.05;3.03;;;24.00;99.90;;;;;;5052453;28;20052;-43
2022/11/09 07:43:23;;;;;;;5.65;3.42;;;24.00;99.90;;;;;;5052477;28;20017;-44
2022/11/09 07:45:49;;;;;;;7.28;3.80;;;24.10;99.90;;;;;;5034790;28;20025;-43
2022/11/09 07:48:15;;;;;;;4.75;3.30;;;24.10;99.90;;;;;;5055045;28;20021;-44
2022/11/09 07:50:41;;;;;;;4.15;3.15;;;24.10;99.90;;;;;;5056188;28;20037;-46
2022/11/09 07:53:09;;;;;;;6.05;3.55;;;24.10;99.90;;;;;;5056009;28;20377;-44
2022/11/09 07:55:35;;;;;;;3.58;2.70;;;24.10;99.90;;;;;;5055899;28;20021;-44
2022/11/09 07:58:05;;;;;;;4.45;2.63;;;24.10;99.90;;;;;;5056085;28;20071;-44
2022/11/09 08:00:33;;;;;;;4.57;2.95;;;24.20;99.90;;;;;;5055824;28;20041;-44
2022/11/09 08:02:59;;;;;;;4.20;3.03;;;24.20;99.90;;;;;;5055901;28;20412;-43
2022/11/09 08:05:25;;;;;;;3.63;2.63;;;24.20;99.90;;;;;;5037835;28;20501;-43
2022/11/09 08:07:55;;;;;;;4.63;3.00;;;24.20;99.90;;;;;;5055641;28;20024;-44
2022/11/09 08:10:21;;;;;;;4.22;2.78;;;24.30;99.90;;;;;;5055863;28;20106;-44
2022/11/09 08:12:59;;;;;;;4.30;2.70;;;24.30;99.90;;;;;;5037987;28;20021;-43
2022/11/09 08:15:25;;;;;;;5.40;2.75;;;24.30;99.90;;;;;;5056030;28;20489;-44
2022/11/09 08:17:51;;;;;;;4.10;2.70;;;24.30;99.90;;;;;;5055804;28;20029;-44
2022/11/09 08:20:18;;;;;;;4.55;3.00;;;24.40;99.90;;;;;;5037652;28;20611;-43
2022/11/09 08:22:45;;;;;;;3.47;2.50;;;24.40;99.90;;;;;;5037713;28;20036;-43
2022/11/09 08:25:12;;;;;;;4.97;2.47;;;24.40;99.90;;;;;;5055624;28;20032;-44
2022/11/09 08:27:39;;;;;;;3.92;2.85;;;24.50;99.90;;;;;;5055495;28;20025;-44
2022/11/09 08:30:16;;;;;;;4.78;2.97;;;24.50;99.90;;;;;;5055547;28;20124;-44
2022/11/09 08:32:43;;;;;;;4.28;2.72;;;24.60;99.90;;;;;;5055349;28;20476;-45
2022/11/09 08:35:12;;;;;;;4.77;2.97;;;24.60;99.90;;;;;;5055501;28;20032;-44
2022/11/09 08:37:38;;;;;;;4.78;3.20;;;24.60;99.90;;;;;;5055547;28;20315;-43
2022/11/09 08:40:05;;;;;;;3.65;2.63;;;24.70;99.90;;;;;;5055279;28;20025;-44
2022/11/09 08:42:31;;;;;;;6.05;2.90;;;24.70;99.90;;;;;;5055209;28;20096;-44
2022/11/09 08:44:57;;;;;;;3.88;2.45;;;24.80;99.90;;;;;;5037319;28;20384;-44
2022/11/09 08:47:23;;;;;;;3.38;2.55;;;24.80;99.90;;;;;;5055146;28;20029;-43
2022/11/09 08:49:48;;;;;;;4.85;2.70;;;24.90;99.90;;;;;;5054987;28;20068;-43
2022/11/09 08:52:16;;;;;;;5.40;3.28;;;24.90;99.90;;;;;;5055173;28;20025;-43
2022/11/09 08:54:42;;;;;;;3.63;2.60;;;24.90;99.90;;;;;;5055119;28;20035;-43
2022/11/09 08:57:08;;;;;;;5.20;2.97;;;25.00;99.90;;;;;;5055000;28;20033;-43
2022/11/09 08:59:34;;;;;;;5.00;2.80;;;25.00;99.90;;;;;;5053907;28;20524;-43
2022/11/09 09:01:59;;;;;;;5.82;3.28;;;25.00;99.90;;;;;;5054553;28;20112;-43
2022/11/09 09:04:25;;;;;;;4.90;2.90;;;25.00;99.90;;;;;;5054809;28;20025;-43
2022/11/09 09:06:51;;;;;;;4.40;3.20;;;25.10;99.90;;;;;;5055023;28;20053;-44
2022/11/09 09:09:17;;;;;;;4.65;3.33;;;25.10;99.90;;;;;;5054729;28;20052;-43
2022/11/09 09:11:43;;;;;;;4.18;2.85;;;25.10;99.90;;;;;;5054778;28;20384;-43
2022/11/09 09:14:08;;;;;;;6.03;3.13;;;25.10;99.90;;;;;;5054603;28;20032;-43
2022/11/09 09:16:34;;;;;;;4.15;2.53;;;25.20;99.90;;;;;;5054513;28;20473;-43
2022/11/09 09:19:00;;;;;;;4.07;2.50;;;25.20;99.90;;;;;;5054384;28;20037;-43
2022/11/09 09:21:26;;;;;;;5.20;2.80;;;25.20;99.90;;;;;;5054640;28;20021;-43
2022/11/09 09:23:52;;;;;;;4.25;3.03;;;25.20;99.90;;;;;;5054640;28;20108;-44
2022/11/09 09:26:18;;;;;;;4.95;3.15;;;25.30;99.90;;;;;;5054502;28;20025;-43
2022/11/09 09:28:43;;;;;;;5.22;2.70;;;25.30;99.90;;;;;;5054220;28;20118;-43
2022/11/09 09:31:09;;;;;;;5.88;3.90;;;25.30;99.90;;;;;;5054141;28;20370;-43
2022/11/09 09:33:35;;;;;;;4.25;2.67;;;25.30;99.90;;;;;;5054410;28;20031;-43
2022/11/09 09:36:01;;;;;;;4.32;2.95;;;25.30;99.90;;;;;;5054125;28;20096;-43
2022/11/09 09:38:28;;;;;;;5.20;2.92;;;25.30;99.90;;;;;;5053974;28;20032;-50
2022/11/09 09:41:00;;;;;;;4.88;2.78;;;25.30;99.90;;;;;;5053839;28;20036;-43
2022/11/09 09:43:45;;;;;;;4.72;2.83;;;25.30;99.90;;;;;;5036259;28;20036;-43
2022/11/09 09:46:39;;;;;;;4.88;2.80;;;25.30;99.90;;;;;;5054012;28;20021;-42
2022/11/09 09:49:20;;;;;;;5.72;2.75;;;25.40;99.90;;;;;;5053668;28;20057;-43
2022/11/09 09:51:57;;;;;;;3.75;2.70;;;25.40;99.90;;;;;;5053930;28;20059;-43
2022/11/09 09:54:29;;;;;;;5.47;2.78;;;25.40;99.90;;;;;;5053772;28;20071;-43
2022/11/09 09:56:58;;;;;;;4.47;2.90;;;25.40;99.90;;;;;;5053657;28;20025;-43
2022/11/09 09:59:39;;;;;;;5.97;2.78;;;25.40;99.90;;;;;;5053776;28;20110;-43
2022/11/09 10:02:28;;;;;;;3.63;2.95;;;25.40;99.90;;;;;;5053561;28;20025;-43
2022/11/09 10:04:59;;;;;;;6.03;2.70;;;25.50;99.90;;;;;;5053835;28;20053;-44
2022/11/09 10:07:37;;;;;;;4.32;2.72;;;25.50;99.90;;;;;;5053607;28;20021;-43
2022/11/09 10:10:02;;;;;;;;;;;25.50;99.90;;;;;;5053897;28;20036;-43
2022/11/09 10:12:57;;;;;;;3.65;2.50;;;25.50;99.90;;;;;;5053784;28;19904;-43
2022/11/09 10:15:54;;;;;;;4.82;3.17;;;25.50;99.90;;;;;;5035548;28;20017;-44
2022/11/09 10:18:38;;;;;;;3.93;2.17;;;25.50;99.90;;;;;;5053520;28;20579;-44
2022/11/09 10:21:07;;;;;;;4.85;2.67;;;25.50;99.90;;;;;;5053359;28;20032;-43
2022/11/09 10:24:08;;;;;;;4.55;2.72;;;25.50;99.90;;;;;;5053331;28;20534;-44
2022/11/09 10:26:48;;;;;;;6.30;3.10;;;25.50;99.90;;;;;;5053329;28;20040;-43
2022/11/09 10:29:35;;;;;;;6.80;2.80;;;25.60;99.90;;;;;;5053410;28;20080;-44
2022/11/09 10:32:14;;;;;;;;;;;25.60;99.90;;;;;;5053623;28;20024;-44
2022/11/09 10:34:53;;;;;;;4.20;2.47;;;25.60;99.90;;;;;;5053161;28;19991;-44
2022/11/09 10:37:36;;;;;;;6.05;3.08;;;25.60;99.90;;;;;;5035181;28;20022;-44
2022/11/09 10:40:18;;;;;;;4.28;2.80;;;25.60;99.90;;;;;;5052988;28;20481;-44
2022/11/09 10:42:57;;;;;;;4.43;2.90;;;25.60;99.90;;;;;;5052933;28;20423;-43
2022/11/09 10:45:36;;;;;;;6.50;2.72;;;25.60;99.90;;;;;;5053066;28;20025;-44
2022/11/09 10:48:03;;;;;;;4.68;2.90;;;25.60;99.90;;;;;;5052994;28;20070;-44
2022/11/09 10:50:33;;;;;;;4.32;3.28;;;25.60;99.90;;;;;;5052968;28;20425;-44
2022/11/09 10:53:07;;;;;;;4.18;3.03;;;25.60;99.90;;;;;;5053140;28;20056;-44
2022/11/09 10:55:35;;;;;;;5.97;3.22;;;25.60;99.90;;;;;;5053111;28;20052;-44
2022/11/09 10:58:16;;;;;;;5.28;3.10;;;25.60;99.90;;;;;;5052927;28;20071;-43
2022/11/09 11:01:15;;;;;;;7.38;3.30;;;25.60;99.90;;;;;;5052808;28;20420;-43
2022/11/09 11:03:42;;;;;;;6.82;3.30;;;25.60;99.90;;;;;;5019523;28;20025;-43
2022/11/09 11:06:21;;;;;;;5.30;3.20;;;25.60;99.90;;;;;;5034914;28;20021;-44
2022/11/09 11:08:51;;;;;;;5.13;3.35;;;25.60;99.90;;;;;;5052781;28;20017;-44
2022/11/09 11:11:17;;;;;;;5.25;3.47;;;25.60;99.90;;;;;;5034861;28;20029;-45
2022/11/09 11:13:43;;;;;;;5.50;3.50;;;25.60;99.90;;;;;;5053117;28;20499;-43
2022/11/09 11:16:36;;;;;;;5.67;3.83;;;25.70;99.90;;;;;;5053199;28;20477;-44
2022/11/09 11:19:03;;;;;;;5.13;3.58;;;25.70;99.90;;;;;;5050197;28;20055;-43
2022/11/09 11:21:30;;;;;;;6.18;3.47;;;25.70;99.90;;;;;;5052767;28;20024;-43
2022/11/09 11:24:15;;;;;;;4.60;3.22;;;25.80;99.90;;;;;;5056859;28;20033;-43
2022/11/09 11:27:05;;;;;;;7.43;3.53;;;25.80;99.90;;;;;;5056573;28;20021;-43
2022/11/09 11:29:37;;;;;;;7.25;4.50;;;25.80;99.90;;;;;;5056789;28;20025;-43
2022/11/09 11:32:07;;;;;;;6.20;3.92;;;25.90;99.90;;;;;;5056524;28;20119;-43
2022/11/09 11:34:36;;;;;;;6.30;4.18;;;26.00;99.90;;;;;;5053140;28;20021;-43
2022/11/09 11:37:08;;;;;;;7.13;3.50;;;26.00;99.90;;;;;;5048053;28;20033;-44
2022/11/09 11:39:45;;;;;;;4.80;3.85;;;26.10;99.90;;;;;;5036717;28;20103;-43
2022/11/09 11:42:24;;;;;;;5.45;3.92;;;26.10;99.90;;;;;;5051150;28;20507;-43
2022/11/09 11:45:19;;;;;;;6.75;3.97;;;26.10;99.90;;;;;;5050850;28;20035;-43
2022/11/09 11:47:57;;;;;;;5.25;3.65;;;26.10;99.90;;;;;;5056332;28;20098;-43
2022/11/09 11:50:42;;;;;;;7.43;3.85;;;26.10;99.90;;;;;;5053615;28;20075;-44
2022/11/09 11:53:25;;;;;;;7.40;3.83;;;26.10;99.90;;;;;;5036925;28;20525;-43
2022/11/09 11:56:31;;;;;;;6.60;3.45;;;26.10;99.90;;;;;;5054950;28;20029;-44
2022/11/09 11:59:23;;;;;;;7.90;1.48;;;26.10;99.90;;;;;;5036221;28;20036;-44
2022/11/09 12:02:01;;;;;;;6.85;1.92;;;26.10;99.90;;;;;;5038151;28;20041;-43
2022/11/09 12:04:45;;;;;;;5.03;1.70;;;25.90;99.90;;;;;;5054202;28;20021;-42
2022/11/09 12:07:22;;;;;;;4.78;1.48;;;25.70;99.90;;;;;;5046586;28;20013;-42
2022/11/09 12:09:51;;;;;;;;;;;25.50;99.90;;;;;;5046902;28;20033;-43
2022/11/09 12:12:25;;;;;;;10.50;5.07;;;25.40;99.90;;;;;;5050060;28;19920;-43
2022/11/09 12:14:53;;;;;;;9.10;3.30;;;25.20;99.90;;;;;;5049738;28;20028;-44
2022/11/09 12:17:31;;;;;;;12.88;3.20;;;25.20;99.90;;;;;;5044328;28;20021;-44
2022/11/09 12:19:57;;;;;;;7.63;1.58;;;25.10;99.90;;;;;;5043965;28;20367;-44
2022/11/09 12:22:33;;;;;;;8.70;1.67;;;25.00;99.90;;;;;;5046754;28;20148;-43
2022/11/09 12:25:31;;;;;;;6.72;0.88;;;24.90;99.90;;;;;;5053887;28;20090;-44
2022/11/09 12:28:18;;;;;;;7.55;3.58;;;24.80;99.90;;;;;;4949055;28;20491;-44
2022/11/09 12:30:49;;;;;;;11.07;3.55;;;24.70;99.90;;;;;;5050592;28;20095;-44
2022/11/09 12:33:25;;;;;;;6.43;3.22;;;24.60;99.90;;;;;;5043307;28;20427;-44
2022/11/09 12:35:58;;;;;;;11.50;4.20;;;24.60;99.90;;;;;;5050419;28;20013;-44
2022/11/09 12:38:46;;;;;;;10.45;3.78;;;24.50;99.90;;;;;;5028317;28;20020;-44
2022/11/09 12:41:15;;;;;;;8.55;3.58;;;24.50;99.90;;;;;;5045781;28;20041;-45
2022/11/09 12:44:16;;;;;;;5.97;1.50;;;24.40;99.90;;;;;;5052149;28;20073;-45
2022/11/09 12:46:53;;;;;;;7.32;2.30;;;24.30;99.90;;;;;;5045699;28;20021;-45
2022/11/09 12:49:33;;;;;;;7.00;2.40;;;24.30;99.90;;;;;;5045582;28;20040;-43
2022/11/09 12:51:59;;;;;;;8.80;2.22;;;24.30;99.90;;;;;;5047102;28;20052;-43
2022/11/09 12:54:26;;;;;;;4.70;2.05;;;24.30;99.90;;;;;;5026611;28;20021;-44
2022/11/09 12:56:59;;;;;;;5.55;2.10;;;24.40;99.90;;;;;;5047954;28;20029;-44